Terminal Aerodrome Forecast
Issued by NWS

Home | Current Version | Previous Version | Text Only | Print | Product List | Glossary On
Versions: 1 2 3 4 5 6 7 8 9 10 11 12
260
FTUS44 KLZK 181134
TAFHRO
TAF
KHRO 181134Z 1812/1912 14005KT P6SM SKC
     FM181500 16009G16KT P6SM SCT250
     FM190000 16005KT P6SM SCT250=

USA.gov is the U.S. government's official web portal to all federal, state and local government web resources and services.